Terminal Aerodrome Forecast
Issued by NWS Grand Forks, ND

Home | Current Version | Previous Version | Text Only | Print | Product List | Glossary Off
Versions: 1 2 3 4 5 6 7 8 9 10 11 12 13 14

000
FTUS43 KFGF 151736
TAFFAR
TAF
KFAR 151736Z 1518/1618 33022G31KT P6SM BKN025
     FM152300 33015KT P6SM BKN015
     FM160800 VRB03KT P6SM BKN025
     FM161200 12008KT P6SM BKN025
     FM161700 14019G27KT P6SM BKN015=

USA.gov is the U.S. government's official web portal to all federal, state and local government web resources and services.